sensor_id;sensor_type;location;lat;lon;timestamp;P1;durP1;ratioP1;P2;durP2;ratioP2
66380;SDS011;53177;52.648;1.214;2023-02-15T00:01:43;74.13;;;32.25;;
66380;SDS011;53177;52.648;1.214;2023-02-15T00:04:09;77.33;;;33.07;;
66380;SDS011;53177;52.648;1.214;2023-02-15T00:06:37;77.55;;;33.17;;
66380;SDS011;53177;52.648;1.214;2023-02-15T00:09:03;81.77;;;33.50;;
66380;SDS011;53177;52.648;1.214;2023-02-15T00:11:28;68.40;;;31.17;;
66380;SDS011;53177;52.648;1.214;2023-02-15T00:14:21;75.07;;;32.47;;
66380;SDS011;53177;52.648;1.214;2023-02-15T00:16:48;74.53;;;32.53;;
66380;SDS011;53177;52.648;1.214;2023-02-15T00:19:19;78.70;;;32.83;;
66380;SDS011;53177;52.648;1.214;2023-02-15T00:21:45;73.45;;;31.88;;
66380;SDS011;53177;52.648;1.214;2023-02-15T00:24:13;76.70;;;31.77;;
66380;SDS011;53177;52.648;1.214;2023-02-15T00:26:40;80.38;;;33.78;;
66380;SDS011;53177;52.648;1.214;2023-02-15T00:29:07;74.97;;;32.33;;
66380;SDS011;53177;52.648;1.214;2023-02-15T00:31:34;73.38;;;31.35;;
66380;SDS011;53177;52.648;1.214;2023-02-15T00:34:09;70.97;;;31.05;;
66380;SDS011;53177;52.648;1.214;2023-02-15T00:36:37;69.30;;;29.90;;
66380;SDS011;53177;52.648;1.214;2023-02-15T00:39:03;74.05;;;31.60;;
66380;SDS011;53177;52.648;1.214;2023-02-15T00:41:32;71.15;;;30.73;;
66380;SDS011;53177;52.648;1.214;2023-02-15T00:43:58;72.15;;;32.05;;
66380;SDS011;53177;52.648;1.214;2023-02-15T00:46:24;77.13;;;33.47;;
66380;SDS011;53177;52.648;1.214;2023-02-15T00:48:49;74.00;;;32.53;;
66380;SDS011;53177;52.648;1.214;2023-02-15T00:51:15;76.63;;;34.38;;
66380;SDS011;53177;52.648;1.214;2023-02-15T00:53:41;79.95;;;36.05;;
66380;SDS011;53177;52.648;1.214;2023-02-15T00:56:09;76.47;;;34.87;;
66380;SDS011;53177;52.648;1.214;2023-02-15T00:58:34;84.43;;;35.42;;
66380;SDS011;53177;52.648;1.214;2023-02-15T01:01:03;85.23;;;35.00;;
66380;SDS011;53177;52.648;1.214;2023-02-15T01:03:31;77.45;;;32.85;;
66380;SDS011;53177;52.648;1.214;2023-02-15T01:05:56;74.83;;;32.57;;
66380;SDS011;53177;52.648;1.214;2023-02-15T01:08:21;80.30;;;33.53;;
66380;SDS011;53177;52.648;1.214;2023-02-15T01:10:47;74.10;;;32.33;;
66380;SDS011;53177;52.648;1.214;2023-02-15T01:13:13;72.50;;;31.63;;
66380;SDS011;53177;52.648;1.214;2023-02-15T01:15:39;73.53;;;31.08;;
66380;SDS011;53177;52.648;1.214;2023-02-15T01:18:05;68.80;;;31.47;;
66380;SDS011;53177;52.648;1.214;2023-02-15T01:20:33;71.63;;;31.02;;
66380;SDS011;53177;52.648;1.214;2023-02-15T01:23:01;68.30;;;29.37;;
66380;SDS011;53177;52.648;1.214;2023-02-15T01:25:27;70.38;;;29.67;;
66380;SDS011;53177;52.648;1.214;2023-02-15T01:27:52;73.67;;;29.80;;
66380;SDS011;53177;52.648;1.214;2023-02-15T01:30:18;65.93;;;29.47;;
66380;SDS011;53177;52.648;1.214;2023-02-15T01:32:44;67.07;;;28.77;;
66380;SDS011;53177;52.648;1.214;2023-02-15T01:35:10;65.70;;;28.77;;
66380;SDS011;53177;52.648;1.214;2023-02-15T01:37:36;64.50;;;28.48;;
66380;SDS011;53177;52.648;1.214;2023-02-15T01:40:03;66.35;;;27.85;;
66380;SDS011;53177;52.648;1.214;2023-02-15T01:42:29;66.77;;;28.87;;
66380;SDS011;53177;52.648;1.214;2023-02-15T01:44:59;70.13;;;29.85;;
66380;SDS011;53177;52.648;1.214;2023-02-15T01:50:07;64.17;;;27.77;;
66380;SDS011;53177;52.648;1.214;2023-02-15T01:55:27;61.00;;;25.90;;
66380;SDS011;53177;52.648;1.214;2023-02-15T01:57:58;64.82;;;27.67;;
66380;SDS011;53177;52.648;1.214;2023-02-15T02:00:24;57.33;;;26.60;;
66380;SDS011;53177;52.648;1.214;2023-02-15T02:02:51;65.65;;;28.70;;
66380;SDS011;53177;52.648;1.214;2023-02-15T02:05:20;57.30;;;25.85;;
66380;SDS011;53177;52.648;1.214;2023-02-15T02:07:46;59.90;;;26.90;;
66380;SDS011;53177;52.648;1.214;2023-02-15T02:10:17;64.10;;;28.45;;
66380;SDS011;53177;52.648;1.214;2023-02-15T02:12:46;62.50;;;26.77;;
66380;SDS011;53177;52.648;1.214;2023-02-15T02:15:14;65.00;;;28.23;;
66380;SDS011;53177;52.648;1.214;2023-02-15T02:17:42;63.60;;;27.50;;
66380;SDS011;53177;52.648;1.214;2023-02-15T02:31:40;58.47;;;25.25;;
66380;SDS011;53177;52.648;1.214;2023-02-15T02:34:29;57.05;;;25.92;;
66380;SDS011;53177;52.648;1.214;2023-02-15T02:39:30;62.03;;;26.20;;
66380;SDS011;53177;52.648;1.214;2023-02-15T02:47:23;57.35;;;25.27;;
66380;SDS011;53177;52.648;1.214;2023-02-15T02:49:58;57.20;;;24.58;;
66380;SDS011;53177;52.648;1.214;2023-02-15T02:52:46;56.00;;;24.40;;
66380;SDS011;53177;52.648;1.214;2023-02-15T02:55:15;61.03;;;25.20;;
66380;SDS011;53177;52.648;1.214;2023-02-15T02:57:54;57.92;;;25.98;;
66380;SDS011;53177;52.648;1.214;2023-02-15T03:00:27;57.13;;;24.90;;
66380;SDS011;53177;52.648;1.214;2023-02-15T03:03:09;56.58;;;25.35;;
66380;SDS011;53177;52.648;1.214;2023-02-15T03:05:41;54.17;;;23.63;;
66380;SDS011;53177;52.648;1.214;2023-02-15T03:08:10;54.65;;;23.92;;
66380;SDS011;53177;52.648;1.214;2023-02-15T03:10:38;59.88;;;26.23;;
66380;SDS011;53177;52.648;1.214;2023-02-15T03:13:05;60.08;;;26.10;;
66380;SDS011;53177;52.648;1.214;2023-02-15T03:15:36;69.93;;;29.77;;
66380;SDS011;53177;52.648;1.214;2023-02-15T03:18:26;75.10;;;30.57;;
66380;SDS011;53177;52.648;1.214;2023-02-15T03:20:56;71.65;;;28.80;;
66380;SDS011;53177;52.648;1.214;2023-02-15T03:23:25;75.75;;;29.48;;
66380;SDS011;53177;52.648;1.214;2023-02-15T03:25:56;70.88;;;28.40;;
66380;SDS011;53177;52.648;1.214;2023-02-15T03:28:41;70.85;;;29.45;;
66380;SDS011;53177;52.648;1.214;2023-02-15T03:31:09;67.30;;;27.90;;
66380;SDS011;53177;52.648;1.214;2023-02-15T03:33:40;73.78;;;28.80;;
66380;SDS011;53177;52.648;1.214;2023-02-15T03:36:15;73.95;;;28.23;;
66380;SDS011;53177;52.648;1.214;2023-02-15T03:38:51;63.67;;;26.42;;
66380;SDS011;53177;52.648;1.214;2023-02-15T03:41:24;71.30;;;28.65;;
66380;SDS011;53177;52.648;1.214;2023-02-15T03:43:56;72.80;;;28.10;;
66380;SDS011;53177;52.648;1.214;2023-02-15T03:46:43;92.78;;;30.25;;
66380;SDS011;53177;52.648;1.214;2023-02-15T03:49:22;68.13;;;28.58;;
66380;SDS011;53177;52.648;1.214;2023-02-15T03:51:53;106.30;;;29.17;;
66380;SDS011;53177;52.648;1.214;2023-02-15T03:54:24;71.47;;;27.75;;
66380;SDS011;53177;52.648;1.214;2023-02-15T03:57:12;66.17;;;28.20;;
66380;SDS011;53177;52.648;1.214;2023-02-15T04:00:00;71.57;;;28.65;;
66380;SDS011;53177;52.648;1.214;2023-02-15T04:05:40;67.78;;;26.50;;
66380;SDS011;53177;52.648;1.214;2023-02-15T04:08:07;67.20;;;26.25;;
66380;SDS011;53177;52.648;1.214;2023-02-15T04:10:33;66.53;;;26.03;;
66380;SDS011;53177;52.648;1.214;2023-02-15T04:13:17;74.68;;;26.48;;
66380;SDS011;53177;52.648;1.214;2023-02-15T04:15:44;72.15;;;25.95;;
66380;SDS011;53177;52.648;1.214;2023-02-15T04:18:29;63.85;;;26.33;;
66380;SDS011;53177;52.648;1.214;2023-02-15T04:21:14;100.40;;;27.35;;
66380;SDS011;53177;52.648;1.214;2023-02-15T04:23:58;86.13;;;27.23;;
66380;SDS011;53177;52.648;1.214;2023-02-15T04:26:42;63.15;;;25.80;;
66380;SDS011;53177;52.648;1.214;2023-02-15T04:29:07;79.27;;;26.33;;
66380;SDS011;53177;52.648;1.214;2023-02-15T04:31:32;72.30;;;26.33;;
66380;SDS011;53177;52.648;1.214;2023-02-15T04:33:58;90.68;;;29.40;;
66380;SDS011;53177;52.648;1.214;2023-02-15T04:36:23;61.78;;;27.23;;
66380;SDS011;53177;52.648;1.214;2023-02-15T04:38:48;61.50;;;27.83;;
66380;SDS011;53177;52.648;1.214;2023-02-15T04:41:14;62.33;;;27.50;;
66380;SDS011;53177;52.648;1.214;2023-02-15T04:43:39;87.03;;;27.77;;
66380;SDS011;53177;52.648;1.214;2023-02-15T04:46:04;68.63;;;27.33;;
66380;SDS011;53177;52.648;1.214;2023-02-15T04:48:30;111.77;;;28.50;;
66380;SDS011;53177;52.648;1.214;2023-02-15T04:50:55;116.03;;;29.73;;
66380;SDS011;53177;52.648;1.214;2023-02-15T04:53:21;72.32;;;27.63;;
66380;SDS011;53177;52.648;1.214;2023-02-15T04:55:46;75.10;;;28.37;;
66380;SDS011;53177;52.648;1.214;2023-02-15T04:58:11;67.60;;;28.23;;
66380;SDS011;53177;52.648;1.214;2023-02-15T05:00:37;102.80;;;28.30;;
66380;SDS011;53177;52.648;1.214;2023-02-15T05:03:02;77.33;;;27.07;;
66380;SDS011;53177;52.648;1.214;2023-02-15T05:05:28;95.70;;;29.10;;
66380;SDS011;53177;52.648;1.214;2023-02-15T05:07:53;79.50;;;26.67;;
66380;SDS011;53177;52.648;1.214;2023-02-15T05:10:19;66.30;;;25.77;;
66380;SDS011;53177;52.648;1.214;2023-02-15T05:12:46;79.57;;;27.75;;
66380;SDS011;53177;52.648;1.214;2023-02-15T05:15:11;63.30;;;26.47;;
66380;SDS011;53177;52.648;1.214;2023-02-15T05:17:37;80.53;;;27.73;;
66380;SDS011;53177;52.648;1.214;2023-02-15T05:20:03;123.63;;;28.85;;
66380;SDS011;53177;52.648;1.214;2023-02-15T05:22:28;89.22;;;27.73;;
66380;SDS011;53177;52.648;1.214;2023-02-15T05:24:54;99.80;;;29.33;;
66380;SDS011;53177;52.648;1.214;2023-02-15T05:27:38;94.85;;;29.55;;
66380;SDS011;53177;52.648;1.214;2023-02-15T05:30:39;112.80;;;31.58;;
66380;SDS011;53177;52.648;1.214;2023-02-15T05:33:05;103.67;;;30.23;;
66380;SDS011;53177;52.648;1.214;2023-02-15T05:35:31;106.95;;;32.58;;
66380;SDS011;53177;52.648;1.214;2023-02-15T05:37:57;95.45;;;30.63;;
66380;SDS011;53177;52.648;1.214;2023-02-15T05:40:23;117.67;;;32.43;;
66380;SDS011;53177;52.648;1.214;2023-02-15T05:42:49;89.72;;;31.85;;
66380;SDS011;53177;52.648;1.214;2023-02-15T05:45:14;102.30;;;29.87;;
66380;SDS011;53177;52.648;1.214;2023-02-15T05:47:40;79.45;;;31.27;;
66380;SDS011;53177;52.648;1.214;2023-02-15T05:50:06;139.53;;;33.70;;
66380;SDS011;53177;52.648;1.214;2023-02-15T05:52:33;93.63;;;31.38;;
66380;SDS011;53177;52.648;1.214;2023-02-15T05:54:58;94.28;;;32.75;;
66380;SDS011;53177;52.648;1.214;2023-02-15T05:57:25;144.98;;;36.03;;
66380;SDS011;53177;52.648;1.214;2023-02-15T05:59:51;135.30;;;35.70;;
66380;SDS011;53177;52.648;1.214;2023-02-15T06:02:16;101.15;;;35.40;;
66380;SDS011;53177;52.648;1.214;2023-02-15T06:04:42;117.70;;;35.90;;
66380;SDS011;53177;52.648;1.214;2023-02-15T06:07:07;123.30;;;36.13;;
66380;SDS011;53177;52.648;1.214;2023-02-15T06:09:32;149.20;;;38.30;;
66380;SDS011;53177;52.648;1.214;2023-02-15T06:11:58;139.13;;;40.07;;
66380;SDS011;53177;52.648;1.214;2023-02-15T06:14:23;110.90;;;38.30;;
66380;SDS011;53177;52.648;1.214;2023-02-15T06:16:48;148.57;;;39.10;;
66380;SDS011;53177;52.648;1.214;2023-02-15T06:19:14;101.93;;;37.53;;
66380;SDS011;53177;52.648;1.214;2023-02-15T06:21:39;105.83;;;39.27;;
66380;SDS011;53177;52.648;1.214;2023-02-15T06:24:04;114.00;;;38.57;;
66380;SDS011;53177;52.648;1.214;2023-02-15T06:26:30;108.93;;;36.30;;
66380;SDS011;53177;52.648;1.214;2023-02-15T06:28:55;105.27;;;38.23;;
66380;SDS011;53177;52.648;1.214;2023-02-15T06:31:20;106.30;;;38.97;;
66380;SDS011;53177;52.648;1.214;2023-02-15T06:33:46;119.67;;;40.40;;
66380;SDS011;53177;52.648;1.214;2023-02-15T06:36:11;128.60;;;40.13;;
66380;SDS011;53177;52.648;1.214;2023-02-15T06:38:37;102.32;;;37.85;;
66380;SDS011;53177;52.648;1.214;2023-02-15T06:41:03;129.93;;;40.65;;
66380;SDS011;53177;52.648;1.214;2023-02-15T06:43:29;113.32;;;39.05;;
66380;SDS011;53177;52.648;1.214;2023-02-15T06:46:00;106.53;;;38.23;;
66380;SDS011;53177;52.648;1.214;2023-02-15T06:48:29;115.00;;;39.35;;
66380;SDS011;53177;52.648;1.214;2023-02-15T06:50:56;103.00;;;39.13;;
66380;SDS011;53177;52.648;1.214;2023-02-15T06:53:21;110.30;;;37.23;;
66380;SDS011;53177;52.648;1.214;2023-02-15T06:55:47;111.23;;;39.63;;
66380;SDS011;53177;52.648;1.214;2023-02-15T06:58:12;115.07;;;42.40;;
66380;SDS011;53177;52.648;1.214;2023-02-15T07:00:37;119.63;;;42.35;;
66380;SDS011;53177;52.648;1.214;2023-02-15T07:03:03;116.40;;;41.53;;
66380;SDS011;53177;52.648;1.214;2023-02-15T07:05:28;116.10;;;42.03;;
66380;SDS011;53177;52.648;1.214;2023-02-15T07:07:56;120.47;;;43.13;;
66380;SDS011;53177;52.648;1.214;2023-02-15T07:10:23;121.17;;;41.87;;
66380;SDS011;53177;52.648;1.214;2023-02-15T07:12:48;129.98;;;42.67;;
66380;SDS011;53177;52.648;1.214;2023-02-15T07:15:15;135.23;;;46.63;;
66380;SDS011;53177;52.648;1.214;2023-02-15T07:17:42;125.57;;;44.90;;
66380;SDS011;53177;52.648;1.214;2023-02-15T07:20:10;127.97;;;44.88;;
66380;SDS011;53177;52.648;1.214;2023-02-15T07:22:38;125.00;;;42.88;;
66380;SDS011;53177;52.648;1.214;2023-02-15T07:25:04;122.20;;;42.37;;
66380;SDS011;53177;52.648;1.214;2023-02-15T07:27:31;130.48;;;44.75;;
66380;SDS011;53177;52.648;1.214;2023-02-15T07:29:57;126.03;;;46.23;;
66380;SDS011;53177;52.648;1.214;2023-02-15T07:32:23;133.32;;;45.80;;
66380;SDS011;53177;52.648;1.214;2023-02-15T07:34:48;119.57;;;43.10;;
66380;SDS011;53177;52.648;1.214;2023-02-15T07:37:13;129.80;;;43.90;;
66380;SDS011;53177;52.648;1.214;2023-02-15T07:39:39;123.40;;;44.07;;
66380;SDS011;53177;52.648;1.214;2023-02-15T07:42:04;133.50;;;45.72;;
66380;SDS011;53177;52.648;1.214;2023-02-15T07:44:30;137.77;;;44.72;;
66380;SDS011;53177;52.648;1.214;2023-02-15T07:46:55;124.90;;;44.57;;
66380;SDS011;53177;52.648;1.214;2023-02-15T07:49:21;120.90;;;43.05;;
66380;SDS011;53177;52.648;1.214;2023-02-15T07:51:46;132.57;;;44.83;;
66380;SDS011;53177;52.648;1.214;2023-02-15T07:54:12;128.03;;;44.50;;
66380;SDS011;53177;52.648;1.214;2023-02-15T07:56:37;138.20;;;48.60;;
66380;SDS011;53177;52.648;1.214;2023-02-15T07:59:02;133.67;;;46.23;;
66380;SDS011;53177;52.648;1.214;2023-02-15T08:01:31;147.73;;;51.35;;
66380;SDS011;53177;52.648;1.214;2023-02-15T08:03:58;140.35;;;48.50;;
66380;SDS011;53177;52.648;1.214;2023-02-15T08:06:25;141.77;;;46.97;;
66380;SDS011;53177;52.648;1.214;2023-02-15T08:08:52;149.20;;;48.60;;
66380;SDS011;53177;52.648;1.214;2023-02-15T08:11:19;144.32;;;46.40;;
66380;SDS011;53177;52.648;1.214;2023-02-15T08:14:08;140.07;;;45.37;;
66380;SDS011;53177;52.648;1.214;2023-02-15T08:16:39;141.88;;;48.17;;
66380;SDS011;53177;52.648;1.214;2023-02-15T08:19:07;141.98;;;46.13;;
66380;SDS011;53177;52.648;1.214;2023-02-15T08:21:35;131.48;;;44.63;;
66380;SDS011;53177;52.648;1.214;2023-02-15T08:24:02;131.93;;;44.08;;
66380;SDS011;53177;52.648;1.214;2023-02-15T08:26:29;143.33;;;47.83;;
66380;SDS011;53177;52.648;1.214;2023-02-15T08:28:56;142.27;;;49.88;;
66380;SDS011;53177;52.648;1.214;2023-02-15T08:31:22;145.15;;;49.10;;
66380;SDS011;53177;52.648;1.214;2023-02-15T08:33:48;151.40;;;50.95;;
66380;SDS011;53177;52.648;1.214;2023-02-15T08:36:16;146.73;;;48.27;;
66380;SDS011;53177;52.648;1.214;2023-02-15T08:38:43;156.27;;;51.83;;
66380;SDS011;53177;52.648;1.214;2023-02-15T08:41:13;151.13;;;50.45;;
66380;SDS011;53177;52.648;1.214;2023-02-15T08:43:50;158.60;;;51.60;;
66380;SDS011;53177;52.648;1.214;2023-02-15T08:46:18;159.15;;;49.83;;
66380;SDS011;53177;52.648;1.214;2023-02-15T08:48:45;151.50;;;48.83;;
66380;SDS011;53177;52.648;1.214;2023-02-15T08:51:11;169.83;;;53.67;;
66380;SDS011;53177;52.648;1.214;2023-02-15T08:53:43;159.27;;;50.55;;
66380;SDS011;53177;52.648;1.214;2023-02-15T08:56:11;162.38;;;52.13;;
66380;SDS011;53177;52.648;1.214;2023-02-15T08:58:37;164.77;;;51.97;;
66380;SDS011;53177;52.648;1.214;2023-02-15T09:01:10;164.77;;;53.40;;
66380;SDS011;53177;52.648;1.214;2023-02-15T09:03:37;155.47;;;51.57;;
66380;SDS011;53177;52.648;1.214;2023-02-15T09:06:03;161.50;;;53.13;;
66380;SDS011;53177;52.648;1.214;2023-02-15T09:08:29;168.40;;;55.58;;
66380;SDS011;53177;52.648;1.214;2023-02-15T09:11:03;185.13;;;56.50;;
66380;SDS011;53177;52.648;1.214;2023-02-15T09:13:30;174.13;;;55.00;;
66380;SDS011;53177;52.648;1.214;2023-02-15T09:16:05;178.97;;;55.73;;
66380;SDS011;53177;52.648;1.214;2023-02-15T09:18:33;179.73;;;56.33;;
66380;SDS011;53177;52.648;1.214;2023-02-15T09:21:08;170.35;;;53.95;;
66380;SDS011;53177;52.648;1.214;2023-02-15T09:23:35;180.37;;;54.03;;
66380;SDS011;53177;52.648;1.214;2023-02-15T09:26:08;188.70;;;58.67;;
66380;SDS011;53177;52.648;1.214;2023-02-15T09:28:35;193.40;;;58.60;;
66380;SDS011;53177;52.648;1.214;2023-02-15T09:33:40;200.23;;;59.50;;
66380;SDS011;53177;52.648;1.214;2023-02-15T09:36:17;188.15;;;58.40;;
66380;SDS011;53177;52.648;1.214;2023-02-15T09:38:56;184.03;;;58.00;;
66380;SDS011;53177;52.648;1.214;2023-02-15T09:58:38;170.30;;;57.53;;
66380;SDS011;53177;52.648;1.214;2023-02-15T10:04:02;166.10;;;55.28;;
66380;SDS011;53177;52.648;1.214;2023-02-15T10:07:00;156.70;;;56.93;;
66380;SDS011;53177;52.648;1.214;2023-02-15T10:09:58;138.40;;;52.38;;
66380;SDS011;53177;52.648;1.214;2023-02-15T10:12:56;127.75;;;48.92;;
66380;SDS011;53177;52.648;1.214;2023-02-15T10:18:26;103.90;;;44.17;;
66380;SDS011;53177;52.648;1.214;2023-02-15T10:21:04;102.23;;;42.00;;
66380;SDS011;53177;52.648;1.214;2023-02-15T10:27:03;93.22;;;40.00;;
66380;SDS011;53177;52.648;1.214;2023-02-15T10:29:37;86.88;;;38.95;;
66380;SDS011;53177;52.648;1.214;2023-02-15T10:34:48;85.77;;;37.20;;
66380;SDS011;53177;52.648;1.214;2023-02-15T10:42:24;77.60;;;35.25;;
66380;SDS011;53177;52.648;1.214;2023-02-15T10:47:38;75.10;;;33.97;;
66380;SDS011;53177;52.648;1.214;2023-02-15T11:01:18;62.80;;;30.88;;
66380;SDS011;53177;52.648;1.214;2023-02-15T11:04:29;60.95;;;29.23;;
66380;SDS011;53177;52.648;1.214;2023-02-15T11:07:26;59.95;;;29.92;;
66380;SDS011;53177;52.648;1.214;2023-02-15T11:10:01;67.22;;;31.70;;
66380;SDS011;53177;52.648;1.214;2023-02-15T11:12:40;61.88;;;30.80;;
66380;SDS011;53177;52.648;1.214;2023-02-15T11:17:45;61.70;;;28.40;;
66380;SDS011;53177;52.648;1.214;2023-02-15T11:20:28;57.45;;;28.35;;
66380;SDS011;53177;52.648;1.214;2023-02-15T11:22:58;56.38;;;28.63;;
66380;SDS011;53177;52.648;1.214;2023-02-15T11:25:28;55.13;;;26.70;;
66380;SDS011;53177;52.648;1.214;2023-02-15T11:27:56;54.88;;;28.65;;
66380;SDS011;53177;52.648;1.214;2023-02-15T11:30:23;56.25;;;29.48;;
66380;SDS011;53177;52.648;1.214;2023-02-15T11:32:58;54.27;;;26.03;;
66380;SDS011;53177;52.648;1.214;2023-02-15T11:35:29;53.22;;;26.95;;
66380;SDS011;53177;52.648;1.214;2023-02-15T11:43:23;56.58;;;27.98;;
66380;SDS011;53177;52.648;1.214;2023-02-15T11:45:56;53.85;;;26.85;;
66380;SDS011;53177;52.648;1.214;2023-02-15T11:48:21;50.90;;;25.17;;
66380;SDS011;53177;52.648;1.214;2023-02-15T11:50:47;57.67;;;28.27;;
66380;SDS011;53177;52.648;1.214;2023-02-15T11:53:13;52.80;;;26.50;;
66380;SDS011;53177;52.648;1.214;2023-02-15T11:55:44;55.38;;;27.00;;
66380;SDS011;53177;52.648;1.214;2023-02-15T12:01:08;56.75;;;28.52;;
66380;SDS011;53177;52.648;1.214;2023-02-15T12:03:44;55.77;;;26.67;;
66380;SDS011;53177;52.648;1.214;2023-02-15T12:06:15;57.47;;;28.83;;
66380;SDS011;53177;52.648;1.214;2023-02-15T12:08:48;56.00;;;27.35;;
66380;SDS011;53177;52.648;1.214;2023-02-15T12:11:19;55.95;;;28.58;;
66380;SDS011;53177;52.648;1.214;2023-02-15T12:13:54;57.70;;;29.25;;
66380;SDS011;53177;52.648;1.214;2023-02-15T12:16:21;57.13;;;28.33;;
66380;SDS011;53177;52.648;1.214;2023-02-15T12:18:47;58.90;;;28.73;;
66380;SDS011;53177;52.648;1.214;2023-02-15T12:21:25;54.15;;;26.98;;
66380;SDS011;53177;52.648;1.214;2023-02-15T12:24:30;56.27;;;27.43;;
66380;SDS011;53177;52.648;1.214;2023-02-15T12:27:04;55.72;;;26.98;;
66380;SDS011;53177;52.648;1.214;2023-02-15T12:29:41;49.95;;;25.40;;
66380;SDS011;53177;52.648;1.214;2023-02-15T12:32:17;47.50;;;25.20;;
66380;SDS011;53177;52.648;1.214;2023-02-15T12:34:47;53.03;;;26.52;;
66380;SDS011;53177;52.648;1.214;2023-02-15T12:37:16;49.40;;;25.37;;
66380;SDS011;53177;52.648;1.214;2023-02-15T12:42:26;46.55;;;24.33;;
66380;SDS011;53177;52.648;1.214;2023-02-15T12:44:55;45.55;;;23.95;;
66380;SDS011;53177;52.648;1.214;2023-02-15T12:47:45;52.90;;;26.70;;
66380;SDS011;53177;52.648;1.214;2023-02-15T12:50:23;46.30;;;23.70;;
66380;SDS011;53177;52.648;1.214;2023-02-15T12:53:05;45.45;;;23.90;;
66380;SDS011;53177;52.648;1.214;2023-02-15T12:55:49;44.78;;;22.67;;
66380;SDS011;53177;52.648;1.214;2023-02-15T12:58:23;45.80;;;24.17;;
66380;SDS011;53177;52.648;1.214;2023-02-15T13:03:33;44.08;;;23.40;;
66380;SDS011;53177;52.648;1.214;2023-02-15T13:06:01;44.25;;;24.65;;
66380;SDS011;53177;52.648;1.214;2023-02-15T13:08:33;48.85;;;25.50;;
66380;SDS011;53177;52.648;1.214;2023-02-15T13:11:07;50.75;;;26.02;;
66380;SDS011;53177;52.648;1.214;2023-02-15T13:14:41;49.03;;;24.73;;
66380;SDS011;53177;52.648;1.214;2023-02-15T13:16:47;51.80;;;26.15;;
66380;SDS011;53177;52.648;1.214;2023-02-15T13:22:03;46.42;;;23.02;;
66380;SDS011;53177;52.648;1.214;2023-02-15T13:24:34;43.75;;;22.67;;
66380;SDS011;53177;52.648;1.214;2023-02-15T13:27:04;44.35;;;22.90;;
66380;SDS011;53177;52.648;1.214;2023-02-15T13:29:31;42.95;;;22.35;;
66380;SDS011;53177;52.648;1.214;2023-02-15T13:32:05;45.95;;;23.67;;
66380;SDS011;53177;52.648;1.214;2023-02-15T13:34:37;45.50;;;23.73;;
66380;SDS011;53177;52.648;1.214;2023-02-15T13:42:56;42.88;;;21.25;;
66380;SDS011;53177;52.648;1.214;2023-02-15T13:51:19;43.80;;;23.67;;
66380;SDS011;53177;52.648;1.214;2023-02-15T13:54:09;42.40;;;23.48;;
66380;SDS011;53177;52.648;1.214;2023-02-15T14:18:59;39.65;;;20.55;;
66380;SDS011;53177;52.648;1.214;2023-02-15T14:29:59;36.10;;;19.33;;
66380;SDS011;53177;52.648;1.214;2023-02-15T14:32:33;38.90;;;19.42;;
66380;SDS011;53177;52.648;1.214;2023-02-15T14:35:04;39.75;;;20.60;;
66380;SDS011;53177;52.648;1.214;2023-02-15T14:40:04;39.83;;;19.58;;
66380;SDS011;53177;52.648;1.214;2023-02-15T14:45:36;43.05;;;21.50;;
66380;SDS011;53177;52.648;1.214;2023-02-15T14:50:57;39.95;;;21.85;;
66380;SDS011;53177;52.648;1.214;2023-02-15T14:53:25;40.78;;;21.13;;
66380;SDS011;53177;52.648;1.214;2023-02-15T14:58:35;39.35;;;21.55;;
66380;SDS011;53177;52.648;1.214;2023-02-15T15:01:05;37.55;;;20.98;;
66380;SDS011;53177;52.648;1.214;2023-02-15T15:03:32;39.15;;;21.02;;
66380;SDS011;53177;52.648;1.214;2023-02-15T15:06:02;41.45;;;22.20;;
66380;SDS011;53177;52.648;1.214;2023-02-15T15:08:33;40.80;;;21.70;;
66380;SDS011;53177;52.648;1.214;2023-02-15T15:14:08;42.10;;;21.67;;
66380;SDS011;53177;52.648;1.214;2023-02-15T15:19:05;40.75;;;22.00;;
66380;SDS011;53177;52.648;1.214;2023-02-15T15:30:01;43.15;;;21.50;;
66380;SDS011;53177;52.648;1.214;2023-02-15T15:35:17;46.10;;;23.17;;
66380;SDS011;53177;52.648;1.214;2023-02-15T15:49:11;41.85;;;22.67;;
66380;SDS011;53177;52.648;1.214;2023-02-15T15:51:40;43.17;;;22.85;;
66380;SDS011;53177;52.648;1.214;2023-02-15T15:54:20;45.47;;;23.00;;
66380;SDS011;53177;52.648;1.214;2023-02-15T15:56:52;44.15;;;22.10;;
66380;SDS011;53177;52.648;1.214;2023-02-15T15:59:25;43.47;;;23.27;;
66380;SDS011;53177;52.648;1.214;2023-02-15T16:01:52;42.72;;;22.52;;
66380;SDS011;53177;52.648;1.214;2023-02-15T16:04:31;49.73;;;22.07;;
66380;SDS011;53177;52.648;1.214;2023-02-15T16:07:13;42.55;;;22.15;;
66380;SDS011;53177;52.648;1.214;2023-02-15T16:09:55;43.63;;;23.65;;
66380;SDS011;53177;52.648;1.214;2023-02-15T16:12:28;43.58;;;21.98;;
66380;SDS011;53177;52.648;1.214;2023-02-15T16:15:05;45.78;;;22.45;;
66380;SDS011;53177;52.648;1.214;2023-02-15T16:17:47;45.35;;;23.33;;
66380;SDS011;53177;52.648;1.214;2023-02-15T16:25:40;43.35;;;22.35;;
66380;SDS011;53177;52.648;1.214;2023-02-15T16:28:29;44.80;;;22.98;;
66380;SDS011;53177;52.648;1.214;2023-02-15T16:31:03;44.70;;;22.73;;
66380;SDS011;53177;52.648;1.214;2023-02-15T16:33:37;42.42;;;22.40;;
66380;SDS011;53177;52.648;1.214;2023-02-15T16:36:04;45.33;;;22.20;;
66380;SDS011;53177;52.648;1.214;2023-02-15T16:41:07;42.20;;;22.92;;
66380;SDS011;53177;52.648;1.214;2023-02-15T16:43:37;44.83;;;22.80;;
66380;SDS011;53177;52.648;1.214;2023-02-15T16:46:06;44.05;;;22.38;;
66380;SDS011;53177;52.648;1.214;2023-02-15T16:48:39;47.47;;;22.95;;
66380;SDS011;53177;52.648;1.214;2023-02-15T16:51:08;43.83;;;21.98;;
66380;SDS011;53177;52.648;1.214;2023-02-15T16:53:34;43.20;;;22.17;;
66380;SDS011;53177;52.648;1.214;2023-02-15T16:56:02;41.27;;;21.37;;
66380;SDS011;53177;52.648;1.214;2023-02-15T16:59:03;39.50;;;20.80;;
66380;SDS011;53177;52.648;1.214;2023-02-15T17:01:23;41.55;;;22.02;;
66380;SDS011;53177;52.648;1.214;2023-02-15T17:03:51;44.03;;;22.15;;
66380;SDS011;53177;52.648;1.214;2023-02-15T17:09:32;43.17;;;22.00;;
66380;SDS011;53177;52.648;1.214;2023-02-15T17:11:58;44.45;;;21.70;;
66380;SDS011;53177;52.648;1.214;2023-02-15T17:14:28;44.85;;;22.65;;
66380;SDS011;53177;52.648;1.214;2023-02-15T17:19:27;42.38;;;21.88;;
66380;SDS011;53177;52.648;1.214;2023-02-15T17:22:05;43.17;;;23.13;;
66380;SDS011;53177;52.648;1.214;2023-02-15T17:24:39;45.28;;;22.80;;
66380;SDS011;53177;52.648;1.214;2023-02-15T17:27:17;41.72;;;22.23;;
66380;SDS011;53177;52.648;1.214;2023-02-15T17:29:54;45.80;;;23.00;;
66380;SDS011;53177;52.648;1.214;2023-02-15T17:32:30;45.60;;;23.00;;
66380;SDS011;53177;52.648;1.214;2023-02-15T17:40:05;44.97;;;21.85;;
66380;SDS011;53177;52.648;1.214;2023-02-15T17:42:53;42.53;;;22.42;;
66380;SDS011;53177;52.648;1.214;2023-02-15T17:45:19;40.60;;;22.13;;
66380;SDS011;53177;52.648;1.214;2023-02-15T17:47:47;44.55;;;23.17;;
66380;SDS011;53177;52.648;1.214;2023-02-15T17:50:21;45.92;;;22.92;;
66380;SDS011;53177;52.648;1.214;2023-02-15T17:52:49;45.20;;;22.80;;
66380;SDS011;53177;52.648;1.214;2023-02-15T17:55:17;46.72;;;24.55;;
66380;SDS011;53177;52.648;1.214;2023-02-15T17:58:11;47.03;;;23.83;;